Time;durP1;ratioP1;P1;durP2;ratioP2;P2;SDS_P1;SDS_P2;PMS_P1;PMS_P2;Temp;Humidity;BMP_temperature;BMP_pressure;BME280_temperature;BME280_humidity;BME280_pressure;Samples;Min_cycle;Max_cycle;Signal;HPM_P1;HPM_P2
2022/08/30 00:03:05;;;;;;;;;;;;;;;17.44;62.86;101791.59;4351207;32;19960;-68
2022/08/30 00:05:32;;;;;;;;;;;;;;;17.41;62.77;101796.13;4354756;32;20234;-68
2022/08/30 00:07:57;;;;;;;;;;;;;;;17.35;62.83;101794.31;4352186;32;19963;-68
2022/08/30 00:10:23;;;;;;;;;;;;;;;17.39;62.67;101794.97;4351350;32;19959;-68
2022/08/30 00:12:48;;;;;;;;;;;;;;;17.42;62.49;101794.88;4349661;32;19963;-68
2022/08/30 00:15:15;;;;;;;;;;;;;;;17.33;62.56;101794.78;4352073;32;20217;-68
2022/08/30 00:17:40;;;;;;;;;;;;;;;17.31;62.58;101793.66;4351677;32;20034;-68
2022/08/30 00:20:07;;;;;;;;;;;;;;;17.25;62.85;101792.66;4349262;32;19981;-68
2022/08/30 00:22:33;;;;;;;;;;;;;;;17.20;62.49;101796.88;4352425;32;20017;-68
2022/08/30 00:24:59;;;;;;;;;;;;;;;17.19;62.35;101797.31;4357038;32;20053;-68
2022/08/30 00:27:26;;;;;;;;;;;;;;;17.17;62.71;101796.97;4352786;32;19963;-68
2022/08/30 00:29:52;;;;;;;;;;;;;;;17.20;62.65;101798.91;4350907;32;20067;-68
2022/08/30 00:32:20;;;;;;;;;;;;;;;17.22;62.52;101802.09;4350997;32;19971;-68
2022/08/30 00:34:47;;;;;;;;;;;;;;;17.16;62.52;101790.50;4352590;32;19987;-68
2022/08/30 00:37:13;;;;;;;;;;;;;;;17.22;62.42;101790.72;4356925;32;19954;-68
2022/08/30 00:39:39;;;;;;;;;;;;;;;17.24;62.52;101783.31;4353874;32;20025;-68
2022/08/30 00:42:05;;;;;;;;;;;;;;;17.22;62.16;101787.88;4349182;32;19959;-68
2022/08/30 00:44:30;;;;;;;;;;;;;;;17.31;62.05;101785.91;4353001;32;19954;-68
2022/08/30 00:46:55;;;;;;;;;;;;;;;17.35;61.67;101789.44;4352794;32;20181;-68
2022/08/30 00:49:21;;;;;;;;;;;;;;;17.34;61.78;101790.66;4352676;32;19962;-68
2022/08/30 00:51:47;;;;;;;;;;;;;;;17.39;60.93;101792.94;4350188;32;21007;-68
2022/08/30 00:54:12;;;;;;;;;;;;;;;17.43;61.09;101790.78;4352485;32;19955;-68
2022/08/30 00:56:38;;;;;;;;;;;;;;;17.37;60.65;101789.75;4354781;32;19952;-68
2022/08/30 00:59:05;;;;;;;;;;;;;;;17.42;60.61;101794.88;4354992;32;20018;-68
2022/08/30 01:01:31;;;;;;;;;;;;;;;17.36;60.64;101791.00;4352284;32;20001;-68
2022/08/30 01:03:57;;;;;;;;;;;;;;;17.26;61.07;101795.03;4351817;32;20684;-68
2022/08/30 01:06:24;;;;;;;;;;;;;;;17.38;60.61;101799.91;4349285;32;20023;-68
2022/08/30 01:08:50;;;;;;;;;;;;;;;17.45;60.31;101799.66;4353723;32;20328;-68
2022/08/30 01:11:19;;;;;;;;;;;;;;;17.60;59.99;101800.75;4351101;32;20425;-68
2022/08/30 01:13:46;;;;;;;;;;;;;;;17.65;59.78;101807.91;4353039;32;20392;-68
2022/08/30 01:16:12;;;;;;;;;;;;;;;17.68;59.52;101795.59;4351450;32;19993;-68
2022/08/30 01:18:38;;;;;;;;;;;;;;;17.69;59.22;101791.47;4352095;32;20033;-68
2022/08/30 01:21:10;;;;;;;;;;;;;;;17.72;58.74;101794.22;4350870;32;19991;-68
2022/08/30 01:23:38;;;;;;;;;;;;;;;17.74;58.48;101802.28;4353731;32;20066;-68
2022/08/30 01:26:04;;;;;;;;;;;;;;;17.70;58.71;101804.44;4351775;32;20001;-68
2022/08/30 01:28:31;;;;;;;;;;;;;;;17.59;59.02;101810.56;4351925;32;20010;-68
2022/08/30 01:30:56;;;;;;;;;;;;;;;17.56;59.01;101799.28;4353231;32;20398;-68
2022/08/30 01:33:22;;;;;;;;;;;;;;;17.44;59.07;101798.09;4351452;32;19989;-68
2022/08/30 01:35:50;;;;;;;;;;;;;;;17.36;59.15;101796.69;4350323;32;20006;-68
2022/08/30 01:38:16;;;;;;;;;;;;;;;17.37;59.23;101811.75;4352023;32;20098;-68
2022/08/30 01:40:42;;;;;;;;;;;;;;;17.30;59.42;101804.22;4352341;32;19990;-68
2022/08/30 01:43:09;;;;;;;;;;;;;;;17.22;59.73;101802.09;4349259;32;20024;-68
2022/08/30 01:45:34;;;;;;;;;;;;;;;17.19;59.98;101798.12;4353971;32;20365;-68
2022/08/30 01:48:00;;;;;;;;;;;;;;;17.18;59.94;101796.53;4354942;32;19982;-68
2022/08/30 01:50:25;;;;;;;;;;;;;;;17.19;59.69;101795.28;4352306;32;20009;-68
2022/08/30 01:52:51;;;;;;;;;;;;;;;17.09;60.13;101790.75;4354746;32;20496;-68
2022/08/30 01:55:16;;;;;;;;;;;;;;;16.98;60.57;101803.72;4350678;32;20014;-68
2022/08/30 01:57:42;;;;;;;;;;;;;;;16.93;61.02;101790.88;4349501;32;19969;-68
2022/08/30 02:00:08;;;;;;;;;;;;;;;16.91;60.71;101790.53;4354518;32;20004;-68
2022/08/30 02:02:34;;;;;;;;;;;;;;;16.86;61.24;101793.16;4362186;32;20017;-68
2022/08/30 02:05:00;;;;;;;;;;;;;;;16.84;61.33;101792.84;4371111;32;19985;-68
2022/08/30 02:07:26;;;;;;;;;;;;;;;16.77;61.61;101790.22;4425215;27;19967;-68
2022/08/30 02:09:51;;;;;;;;;;;;;;;16.70;61.78;101791.25;4374418;32;19958;-68
2022/08/30 02:12:17;;;;;;;;;;;;;;;16.67;61.92;101788.53;4375485;32;20009;-68
2022/08/30 02:14:42;;;;;;;;;;;;;;;16.60;62.09;101788.75;4375559;32;20013;-68
2022/08/30 02:17:09;;;;;;;;;;;;;;;16.52;62.45;101791.03;4375523;32;19923;-68
2022/08/30 02:19:35;;;;;;;;;;;;;;;16.50;62.36;101782.16;4377828;32;20023;-68
2022/08/30 02:22:00;;;;;;;;;;;;;;;16.50;62.39;101785.00;4378445;32;19978;-68
2022/08/30 02:24:26;;;;;;;;;;;;;;;16.47;62.60;101785.91;4377696;32;20033;-68
2022/08/30 02:26:52;;;;;;;;;;;;;;;16.45;62.54;101781.94;4376598;32;20043;-68
2022/08/30 02:29:18;;;;;;;;;;;;;;;16.39;62.73;101778.84;4376543;32;19985;-68
2022/08/30 02:31:43;;;;;;;;;;;;;;;16.36;62.67;101785.44;4373842;32;19993;-68
2022/08/30 02:34:09;;;;;;;;;;;;;;;16.34;62.61;101785.06;4378534;32;19967;-68
2022/08/30 02:36:35;;;;;;;;;;;;;;;16.26;62.83;101792.22;4380704;32;19931;-68
2022/08/30 02:39:01;;;;;;;;;;;;;;;16.27;62.79;101781.66;4380799;32;19981;-68
2022/08/30 02:41:26;;;;;;;;;;;;;;;16.27;62.79;101775.97;4377208;32;20012;-67
2022/08/30 02:43:57;;;;;;;;;;;;;;;16.24;62.62;101777.69;4380906;32;19982;-68
2022/08/30 02:46:22;;;;;;;;;;;;;;;16.21;62.64;101770.06;4380084;32;20188;-68
2022/08/30 02:48:48;;;;;;;;;;;;;;;16.17;62.58;101780.72;4381760;32;19926;-68
2022/08/30 02:51:14;;;;;;;;;;;;;;;16.17;62.62;101772.19;4380994;32;20165;-68
2022/08/30 02:53:42;;;;;;;;;;;;;;;16.14;62.62;101763.81;4377550;32;19967;-68
2022/08/30 02:56:08;;;;;;;;;;;;;;;16.16;62.67;101770.62;4378152;32;19942;-68
2022/08/30 02:58:34;;;;;;;;;;;;;;;16.09;62.85;101779.37;4377962;32;20002;-68
2022/08/30 03:01:00;;;;;;;;;;;;;;;16.08;62.97;101779.81;4378593;32;19985;-68
2022/08/30 03:03:27;;;;;;;;;;;;;;;16.04;63.06;101777.06;4378886;32;19943;-68
2022/08/30 03:05:53;;;;;;;;;;;;;;;15.96;63.12;101775.72;4377892;32;20216;-68
2022/08/30 03:08:19;;;;;;;;;;;;;;;15.98;63.19;101771.16;4379586;32;19978;-68
2022/08/30 03:10:44;;;;;;;;;;;;;;;15.94;63.28;101767.62;4378626;32;20161;-68
2022/08/30 03:13:10;;;;;;;;;;;;;;;15.91;63.30;101765.69;4380637;32;19962;-68
2022/08/30 03:15:39;;;;;;;;;;;;;;;15.85;63.53;101773.19;4683289;27;19990;-67
2022/08/30 03:18:04;;;;;;;;;;;;;;;15.81;63.54;101775.31;4377413;32;19986;-68
2022/08/30 03:20:29;;;;;;;;;;;;;;;15.72;63.62;101775.19;4377338;32;19977;-68
2022/08/30 03:22:55;;;;;;;;;;;;;;;15.75;63.54;101787.69;4361329;32;19971;-68
2022/08/30 03:25:21;;;;;;;;;;;;;;;15.75;63.59;101779.16;4376193;32;19963;-68
2022/08/30 03:27:46;;;;;;;;;;;;;;;15.69;63.76;101786.63;4369495;32;19944;-68
2022/08/30 03:30:12;;;;;;;;;;;;;;;15.63;63.92;101780.72;4375778;32;19961;-68
2022/08/30 03:32:38;;;;;;;;;;;;;;;15.67;63.87;101777.75;4378090;32;20016;-68
2022/08/30 03:35:05;;;;;;;;;;;;;;;15.58;64.18;101783.28;4375129;32;19995;-68
2022/08/30 03:37:30;;;;;;;;;;;;;;;15.55;64.16;101778.50;4373785;32;19971;-68
2022/08/30 03:39:56;;;;;;;;;;;;;;;15.42;64.49;101784.12;4374423;32;19945;-68
2022/08/30 03:42:23;;;;;;;;;;;;;;;15.49;64.34;101774.62;4379094;32;20448;-68
2022/08/30 03:44:48;;;;;;;;;;;;;;;15.43;64.36;101779.25;4380003;32;19962;-68
2022/08/30 03:47:14;;;;;;;;;;;;;;;15.44;64.40;101763.84;4377909;32;19971;-68
2022/08/30 03:49:40;;;;;;;;;;;;;;;15.42;64.54;101769.16;4375379;32;19955;-68
2022/08/30 03:52:06;;;;;;;;;;;;;;;15.42;64.63;101775.63;4378615;32;19938;-68
2022/08/30 03:54:32;;;;;;;;;;;;;;;15.44;64.61;101778.78;4377006;32;19967;-68
2022/08/30 03:56:58;;;;;;;;;;;;;;;15.45;64.69;101782.44;4376252;32;19975;-68
2022/08/30 03:59:24;;;;;;;;;;;;;;;15.45;64.60;101776.78;4366781;32;19962;-68
2022/08/30 04:01:50;;;;;;;;;;;;;;;15.41;64.92;101776.84;4375300;32;19931;-68
2022/08/30 04:04:15;;;;;;;;;;;;;;;15.41;65.06;101770.41;4371704;32;20038;-68
2022/08/30 04:06:41;;;;;;;;;;;;;;;15.42;65.03;101772.78;4377786;32;19986;-68
2022/08/30 04:09:06;;;;;;;;;;;;;;;15.43;65.12;101768.72;4377611;32;19938;-68
2022/08/30 04:11:32;;;;;;;;;;;;;;;15.39;65.27;101768.00;4381041;32;19970;-68
2022/08/30 04:13:57;;;;;;;;;;;;;;;15.38;65.47;101771.28;4377135;32;19942;-68
2022/08/30 04:16:24;;;;;;;;;;;;;;;15.36;65.67;101766.03;4374682;32;20208;-68
2022/08/30 04:18:59;;;;;;;;;;;;;;;15.39;65.80;101767.22;4376189;32;19942;-68
2022/08/30 04:21:25;;;;;;;;;;;;;;;15.39;65.98;101770.84;4375365;32;19944;-68
2022/08/30 04:23:54;;;;;;;;;;;;;;;15.39;66.19;101775.72;4374840;32;19970;-68
2022/08/30 04:26:20;;;;;;;;;;;;;;;15.38;66.40;101786.28;4377153;32;19942;-68
2022/08/30 04:28:45;;;;;;;;;;;;;;;15.32;66.77;101790.06;4374300;32;19975;-68
2022/08/30 04:31:13;;;;;;;;;;;;;;;15.40;66.52;101785.84;4377232;32;19973;-68
2022/08/30 04:33:43;;;;;;;;;;;;;;;15.35;66.58;101777.84;4375983;32;19931;-68
2022/08/30 04:36:09;;;;;;;;;;;;;;;15.40;66.50;101789.47;4377879;32;19977;-68
2022/08/30 04:38:35;;;;;;;;;;;;;;;15.43;66.34;101782.09;4374577;32;19934;-68
2022/08/30 04:41:01;;;;;;;;;;;;;;;15.35;66.58;101783.50;4375374;32;19959;-68
2022/08/30 04:43:27;;;;;;;;;;;;;;;15.44;66.34;101780.84;4376534;32;19965;-68
2022/08/30 04:45:56;;;;;;;;;;;;;;;15.43;66.32;101784.91;4377986;32;19935;-68
2022/08/30 04:48:23;;;;;;;;;;;;;;;15.39;66.32;101790.72;4368558;32;19923;-68
2022/08/30 04:50:49;;;;;;;;;;;;;;;15.33;66.63;101785.97;4372062;32;19965;-68
2022/08/30 04:53:21;;;;;;;;;;;;;;;15.39;66.35;101785.03;4376316;32;20046;-68
2022/08/30 04:55:47;;;;;;;;;;;;;;;15.38;66.51;101788.31;4379140;32;19939;-68
2022/08/30 04:58:13;;;;;;;;;;;;;;;15.36;66.86;101779.41;4377269;32;19938;-68
2022/08/30 05:00:40;;;;;;;;;;;;;;;15.36;66.81;101785.09;4374414;32;19931;-68
2022/08/30 05:03:09;;;;;;;;;;;;;;;15.39;66.70;101787.88;4374630;32;19983;-68
2022/08/30 05:05:41;;;;;;;;;;;;;;;15.37;66.87;101792.41;4373585;32;19924;-68
2022/08/30 05:08:15;;;;;;;;;;;;;;;15.39;66.84;101784.22;4377540;32;19946;-68
2022/08/30 05:10:43;;;;;;;;;;;;;;;15.39;66.51;101790.72;4378746;32;19959;-68
2022/08/30 05:13:13;;;;;;;;;;;;;;;15.42;66.70;101795.50;4373585;32;19960;-68
2022/08/30 05:15:39;;;;;;;;;;;;;;;15.35;66.69;101800.53;4376393;32;19978;-68
2022/08/30 05:18:06;;;;;;;;;;;;;;;15.35;66.81;101792.81;4374773;32;19977;-68
2022/08/30 05:20:33;;;;;;;;;;;;;;;15.30;66.80;101787.69;4375758;32;19935;-68
2022/08/30 05:22:58;;;;;;;;;;;;;;;15.34;66.91;101791.22;4375205;32;19955;-68
2022/08/30 05:25:25;;;;;;;;;;;;;;;15.36;66.81;101793.59;4375047;32;19942;-68
2022/08/30 05:27:51;;;;;;;;;;;;;;;15.38;66.84;101806.16;4373570;32;19978;-68
2022/08/30 05:30:18;;;;;;;;;;;;;;;15.40;66.77;101806.47;4375247;32;19962;-68
2022/08/30 05:32:43;;;;;;;;;;;;;;;15.43;66.96;101811.25;4376901;32;19979;-68
2022/08/30 05:35:13;;;;;;;;;;;;;;;15.47;66.71;101809.13;4373852;32;19993;-68
2022/08/30 05:37:39;;;;;;;;;;;;;;;15.53;66.66;101815.84;4376052;32;19966;-68
2022/08/30 05:40:06;;;;;;;;;;;;;;;15.58;66.49;101818.16;4374735;32;19982;-68
2022/08/30 05:42:31;;;;;;;;;;;;;;;15.63;66.37;101820.44;4375310;32;19954;-68
2022/08/30 05:44:57;;;;;;;;;;;;;;;15.67;66.07;101826.00;4376237;32;19945;-68
2022/08/30 05:47:24;;;;;;;;;;;;;;;15.80;65.67;101827.66;4375235;32;19959;-68
2022/08/30 05:49:56;;;;;;;;;;;;;;;15.88;65.40;101817.69;4374676;32;20460;-68
2022/08/30 05:52:22;;;;;;;;;;;;;;;16.01;65.29;101814.88;4375293;32;19922;-68
2022/08/30 05:54:51;;;;;;;;;;;;;;;16.06;64.97;101819.22;4374826;32;20050;-68
2022/08/30 05:57:17;;;;;;;;;;;;;;;16.12;64.90;101825.94;4374575;32;20010;-68
2022/08/30 05:59:42;;;;;;;;;;;;;;;16.19;64.59;101820.03;4362664;32;19935;-68
2022/08/30 06:02:08;;;;;;;;;;;;;;;16.28;64.18;101812.44;4374460;32;19927;-68
2022/08/30 06:04:35;;;;;;;;;;;;;;;16.35;63.89;101822.81;4377100;32;19935;-68
2022/08/30 06:07:01;;;;;;;;;;;;;;;16.42;63.40;101814.88;4375081;32;19927;-68
2022/08/30 06:09:28;;;;;;;;;;;;;;;16.40;63.45;101822.22;4378789;32;20099;-68
2022/08/30 06:11:53;;;;;;;;;;;;;;;16.49;62.96;101817.50;4380616;32;19982;-68
2022/08/30 06:14:19;;;;;;;;;;;;;;;16.48;62.80;101823.66;4377955;32;19958;-68
2022/08/30 06:16:44;;;;;;;;;;;;;;;16.55;62.69;101827.06;4380372;32;19963;-68
2022/08/30 06:19:10;;;;;;;;;;;;;;;16.50;62.75;101816.25;4376676;32;20077;-68
2022/08/30 06:21:47;;;;;;;;;;;;;;;16.62;62.13;101817.50;4380342;32;19990;-67
2022/08/30 06:24:13;;;;;;;;;;;;;;;16.73;62.14;101815.94;4379697;32;19983;-68
2022/08/30 06:26:40;;;;;;;;;;;;;;;16.78;62.10;101821.03;4376770;32;20149;-68
2022/08/30 06:29:07;;;;;;;;;;;;;;;16.76;61.48;101820.72;4377925;32;19927;-68
2022/08/30 06:31:33;;;;;;;;;;;;;;;16.96;60.73;101823.28;4378548;32;19966;-67
2022/08/30 06:33:59;;;;;;;;;;;;;;;16.93;60.90;101818.50;4377844;32;19978;-67
2022/08/30 06:36:25;;;;;;;;;;;;;;;17.00;60.40;101813.37;4377616;32;20009;-67
2022/08/30 06:38:54;;;;;;;;;;;;;;;17.13;60.30;101814.19;4378111;32;19955;-68
2022/08/30 06:41:30;;;;;;;;;;;;;;;17.14;59.96;101818.62;4373948;32;19936;-68
2022/08/30 06:43:57;;;;;;;;;;;;;;;17.05;60.21;101818.50;4380581;32;19945;-68
2022/08/30 06:46:24;;;;;;;;;;;;;;;17.23;59.85;101815.88;4377677;32;19931;-68
2022/08/30 06:48:50;;;;;;;;;;;;;;;17.38;59.57;101822.66;4375675;32;19987;-68
2022/08/30 06:51:25;;;;;;;;;;;;;;;17.49;58.49;101817.41;4479431;27;20000;-67
2022/08/30 06:53:50;;;;;;;;;;;;;;;17.39;58.47;101807.16;4401164;32;19957;-68
2022/08/30 06:56:16;;;;;;;;;;;;;;;17.68;58.16;101816.31;4399933;32;19931;-68
2022/08/30 07:01:25;;;;;;;;;;;;;;;17.89;57.06;101823.31;4382972;32;19961;-68
2022/08/30 07:03:54;;;;;;;;;;;;;;;18.04;56.59;101832.09;4378558;32;19986;-68
2022/08/30 07:06:20;;;;;;;;;;;;;;;18.17;56.36;101825.06;4390784;32;19931;-68
2022/08/30 07:08:55;;;;;;;;;;;;;;;18.08;55.90;101825.00;4390386;32;19970;-68
2022/08/30 07:11:24;;;;;;;;;;;;;;;18.14;55.36;101830.91;4388279;32;20041;-68
2022/08/30 07:13:55;;;;;;;;;;;;;;;18.26;54.98;101833.69;4390627;32;19960;-68
2022/08/30 07:16:22;;;;;;;;;;;;;;;18.49;53.66;101832.41;4387945;32;19971;-68
2022/08/30 07:18:57;;;;;;;;;;;;;;;18.44;52.85;101824.47;4394670;32;19970;-68
2022/08/30 07:21:25;;;;;;;;;;;;;;;18.42;52.97;101819.25;4389505;32;20104;-68
2022/08/30 07:23:52;;;;;;;;;;;;;;;18.65;52.44;101826.50;4390381;32;20234;-67
2022/08/30 07:26:20;;;;;;;;;;;;;;;18.57;52.75;101823.13;4392786;32;19937;-66
2022/08/30 07:28:46;;;;;;;;;;;;;;;18.69;52.55;101824.28;4389511;32;19930;-66
2022/08/30 07:31:12;;;;;;;;;;;;;;;18.72;52.34;101824.13;4385340;32;19941;-68
2022/08/30 07:33:44;;;;;;;;;;;;;;;18.82;51.85;101831.47;4386058;32;20034;-67
2022/08/30 07:36:10;;;;;;;;;;;;;;;18.40;52.96;101838.84;4370549;32;19947;-68
2022/08/30 07:38:36;;;;;;;;;;;;;;;18.55;52.86;101828.50;4384020;32;19970;-67
2022/08/30 07:41:08;;;;;;;;;;;;;;;18.61;52.63;101828.66;4382361;32;19963;-68
2022/08/30 07:43:34;;;;;;;;;;;;;;;18.84;52.25;101834.63;4385103;32;19915;-67
2022/08/30 07:46:01;;;;;;;;;;;;;;;18.92;51.79;101832.28;4384798;32;19986;-67
2022/08/30 07:48:33;;;;;;;;;;;;;;;18.98;51.52;101834.06;4383706;32;19937;-68
2022/08/30 07:50:59;;;;;;;;;;;;;;;19.14;51.40;101830.94;4431506;27;19946;-68
2022/08/30 07:53:25;;;;;;;;;;;;;;;19.20;50.44;101834.75;4404323;32;19926;-67
2022/08/30 07:55:51;;;;;;;;;;;;;;;19.38;50.02;101836.87;4406133;32;19979;-67
2022/08/30 07:58:18;;;;;;;;;;;;;;;19.44;49.47;101841.50;4404855;32;20111;-67
2022/08/30 08:00:51;;;;;;;;;;;;;;;19.50;49.07;101833.91;4410962;32;19963;-67
2022/08/30 08:03:17;;;;;;;;;;;;;;;19.71;48.76;101841.53;4407248;32;19978;-68
2022/08/30 08:05:44;;;;;;;;;;;;;;;19.34;49.22;101839.91;4405253;32;20012;-67
2022/08/30 08:08:10;;;;;;;;;;;;;;;19.55;49.43;101833.25;4407682;32;19955;-67
2022/08/30 08:10:37;;;;;;;;;;;;;;;19.76;48.83;101852.31;4405314;32;19968;-68
2022/08/30 08:13:05;;;;;;;;;;;;;;;20.11;48.13;101840.53;4409493;32;19940;-67
2022/08/30 08:15:31;;;;;;;;;;;;;;;20.29;47.12;101838.50;4401508;32;19962;-68
2022/08/30 08:17:57;;;;;;;;;;;;;;;20.54;46.56;101843.03;4402629;32;20175;-68
2022/08/30 08:20:25;;;;;;;;;;;;;;;20.83;46.14;101844.03;4405975;32;19927;-67
2022/08/30 08:22:50;;;;;;;;;;;;;;;21.02;45.78;101851.28;4403924;32;19967;-68
2022/08/30 08:25:16;;;;;;;;;;;;;;;21.19;44.71;101846.75;4391278;32;19974;-67
2022/08/30 08:27:42;;;;;;;;;;;;;;;21.49;44.61;101848.47;4405016;32;20006;-67
2022/08/30 08:30:08;;;;;;;;;;;;;;;21.71;43.72;101856.75;4406265;32;19949;-67
2022/08/30 08:32:34;;;;;;;;;;;;;;;21.90;42.78;101854.56;4406007;32;19942;-67
2022/08/30 08:34:59;;;;;;;;;;;;;;;22.13;42.27;101862.31;4403433;32;19934;-67
2022/08/30 08:37:26;;;;;;;;;;;;;;;22.62;41.59;101862.47;4405895;32;19982;-68
2022/08/30 08:39:52;;;;;;;;;;;;;;;22.68;41.15;101858.44;4400590;32;19994;-67
2022/08/30 08:50:13;;;;;;;;;;;;;;;24.20;38.28;101856.69;3973648;32;15727540;-68
2022/08/30 08:55:17;;;;;;;;;;;;;;;24.56;36.28;101861.75;3965089;32;15721597;-68
2022/08/30 08:57:43;;;;;;;;;;;;;;;24.56;36.28;101861.75;4446279;32;19953;-68
2022/08/30 09:00:10;;;;;;;;;;;;;;;23.68;37.23;101857.84;4446621;32;19957;-68
2022/08/30 09:02:39;;;;;;;;;;;;;;;24.13;36.62;101856.31;4447262;32;19913;-68
2022/08/30 09:05:06;;;;;;;;;;;;;;;24.23;35.99;101857.75;4445907;32;19952;-68
2022/08/30 09:07:37;;;;;;;;;;;;;;;24.22;35.92;101864.78;4451531;32;19937;-68
2022/08/30 09:10:03;;;;;;;;;;;;;;;23.74;36.61;101855.84;4446756;32;20092;-68
2022/08/30 09:12:34;;;;;;;;;;;;;;;23.58;36.94;101865.03;4446347;32;19962;-68
2022/08/30 09:15:03;;;;;;;;;;;;;;;23.83;36.98;101855.69;4446522;32;19930;-68
2022/08/30 09:17:47;;;;;;;;;;;;;;;23.77;36.94;101865.56;4446048;32;19929;-68
2022/08/30 09:20:22;;;;;;;;;;;;;;;23.67;36.20;101861.22;4447030;32;19989;-68
2022/08/30 09:22:48;;;;;;;;;;;;;;;23.98;35.67;101859.31;4445773;32;20009;-68
2022/08/30 09:25:21;;;;;;;;;;;;;;;24.34;34.84;101867.28;4445703;32;19958;-68
2022/08/30 09:27:48;;;;;;;;;;;;;;;24.40;34.32;101864.47;4447111;32;20149;-67
2022/08/30 09:32:56;;;;;;;;;;;;;;;25.75;32.29;101864.47;3971252;32;15725571;-67
2022/08/30 09:38:04;;;;;;;;;;;;;;;25.28;33.16;101868.63;3971380;32;15721719;-68
2022/08/30 09:43:20;;;;;;;;;;;;;;;25.25;33.57;101874.91;3971210;32;15722668;-67
2022/08/30 09:45:47;;;;;;;;;;;;;;;25.25;33.57;101874.91;4455477;32;19988;-67
2022/08/30 09:48:33;;;;;;;;;;;;;;;24.75;33.87;101859.31;4455789;32;19990;-67
2022/08/30 09:51:18;;;;;;;;;;;;;;;24.67;34.15;101870.50;4454847;32;20185;-68
2022/08/30 09:59:56;;;;;;;;;;;;;;;24.99;33.97;101862.66;4343330;27;20076;-68
2022/08/30 10:10:36;;;;;;;;;;;;;;;27.07;30.49;101872.62;3971784;32;15723541;-68
2022/08/30 10:13:15;;;;;;;;;;;;;;;27.07;30.49;101872.62;4452126;32;19969;-68
2022/08/30 10:16:00;;;;;;;;;;;;;;;26.78;29.94;101855.81;4447877;32;19948;-68
2022/08/30 10:18:31;;;;;;;;;;;;;;;27.01;29.88;101863.97;4452031;32;19945;-68
2022/08/30 10:21:17;;;;;;;;;;;;;;;27.15;29.72;101868.66;4447967;32;19986;-68
2022/08/30 10:23:46;;;;;;;;;;;;;;;27.53;28.50;101869.94;4437649;32;19954;-68
2022/08/30 10:26:31;;;;;;;;;;;;;;;27.62;28.53;101865.97;4717951;26;19930;-68
2022/08/30 10:29:02;;;;;;;;;;;;;;;27.48;28.46;101869.97;4436835;32;19969;-68
2022/08/30 10:31:48;;;;;;;;;;;;;;;27.76;28.41;101870.66;4436432;32;19934;-68
2022/08/30 10:34:16;;;;;;;;;;;;;;;28.20;27.94;101861.78;4437239;32;20083;-67
2022/08/30 10:36:43;;;;;;;;;;;;;;;28.78;27.46;101869.03;4435670;32;19981;-68
2022/08/30 10:39:12;;;;;;;;;;;;;;;29.12;26.81;101860.84;4434454;32;19932;-68
2022/08/30 10:41:41;;;;;;;;;;;;;;;29.39;26.53;101851.84;4435165;32;19982;-68
2022/08/30 10:44:16;;;;;;;;;;;;;;;29.69;26.14;101863.41;4435133;32;19973;-68
2022/08/30 10:49:33;;;;;;;;;;;;;;;30.88;24.42;101860.63;3971977;32;15721553;-68
2022/08/30 10:54:41;;;;;;;;;;;;;;;31.01;24.30;101857.78;3971397;32;15724603;-68
2022/08/30 10:57:07;;;;;;;;;;;;;;;31.01;24.30;101857.78;4449143;32;19925;-68
2022/08/30 10:59:35;;;;;;;;;;;;;;;30.62;24.68;101853.38;4450690;32;19961;-68
2022/08/30 11:05:04;;;;;;;;;;;;;;;31.86;23.22;101846.34;3970596;32;15722005;-68
2022/08/30 11:07:41;;;;;;;;;;;;;;;31.86;23.22;101846.34;4448494;32;19981;-68
2022/08/30 11:10:26;;;;;;;;;;;;;;;31.90;22.80;101857.66;4446631;32;20073;-67
2022/08/30 11:15:30;;;;;;;;;;;;;;;32.13;22.75;101859.53;3941035;32;15722605;-68
2022/08/30 11:18:12;;;;;;;;;;;;;;;32.13;22.75;101859.53;4418124;32;19930;-69
2022/08/30 11:20:40;;;;;;;;;;;;;;;31.99;22.65;101849.25;4419307;32;19975;-68
2022/08/30 11:33:58;;;;;;;;;;;;;;;32.73;22.01;101844.84;3955346;32;15722524;-68
2022/08/30 11:39:06;;;;;;;;;;;;;;;32.83;21.95;101842.22;3969972;32;15723510;-68
2022/08/30 11:41:34;;;;;;;;;;;;;;;32.83;21.95;101842.22;4449669;32;19950;-68
2022/08/30 11:46:53;;;;;;;;;;;;;;;32.93;21.83;101844.09;3953615;32;15720707;-67
2022/08/30 12:00:01;;;;;;;;;;;;;;;30.89;24.04;101833.91;3956508;32;15723581;-69
2022/08/30 12:02:47;;;;;;;;;;;;;;;30.89;24.04;101833.91;4438140;32;19996;-68
2022/08/30 12:05:38;;;;;;;;;;;;;;;30.10;24.91;101834.91;4439784;32;19972;-68
2022/08/30 12:10:42;;;;;;;;;;;;;;;30.93;24.40;101836.50;3981643;31;15720169;-69
2022/08/30 12:13:29;;;;;;;;;;;;;;;30.93;24.40;101836.50;4447923;32;19967;-68
2022/08/30 12:15:56;;;;;;;;;;;;;;;31.24;23.77;101838.56;4454492;32;20041;-68
2022/08/30 12:18:27;;;;;;;;;;;;;;;31.67;23.56;101839.84;4453076;32;20046;-67
2022/08/30 12:20:53;;;;;;;;;;;;;;;31.69;23.25;101842.22;4454878;32;20343;-68
2022/08/30 12:26:20;;;;;;;;;;;;;;;31.70;23.19;101830.00;3962677;32;15725368;-68
2022/08/30 12:28:47;;;;;;;;;;;;;;;31.70;23.19;101830.00;4438038;32;20125;-68
2022/08/30 12:31:16;;;;;;;;;;;;;;;30.68;24.19;101841.69;4436897;32;19949;-68
2022/08/30 12:33:44;;;;;;;;;;;;;;;30.91;24.33;101845.00;4437337;32;20001;-68
2022/08/30 12:36:12;;;;;;;;;;;;;;;30.77;24.54;101839.16;4437459;32;19958;-68
2022/08/30 12:38:37;;;;;;;;;;;;;;;30.97;24.16;101842.78;4439259;32;19961;-68
2022/08/30 12:41:16;;;;;;;;;;;;;;;31.24;23.84;101824.81;4435946;32;20037;-68
2022/08/30 12:43:48;;;;;;;;;;;;;;;31.46;23.70;101835.25;4436741;32;20006;-68
2022/08/30 12:46:18;;;;;;;;;;;;;;;31.51;23.45;101837.28;4437075;32;20298;-68
2022/08/30 12:48:44;;;;;;;;;;;;;;;30.98;24.05;101833.50;4434406;32;20181;-68
2022/08/30 12:51:24;;;;;;;;;;;;;;;31.48;23.66;101829.66;4435853;32;19961;-68
2022/08/30 12:54:05;;;;;;;;;;;;;;;31.32;23.59;101824.97;4438669;32;20302;-68
2022/08/30 12:56:51;;;;;;;;;;;;;;;31.74;23.47;101833.34;4439200;32;19961;-68
2022/08/30 12:59:36;;;;;;;;;;;;;;;31.26;23.82;101830.84;4439734;32;19993;-68
2022/08/30 13:02:07;;;;;;;;;;;;;;;30.56;23.95;101829.44;4435192;32;20005;-68
2022/08/30 13:04:43;;;;;;;;;;;;;;;30.25;24.49;101820.72;4434279;32;19992;-68
2022/08/30 13:07:09;;;;;;;;;;;;;;;30.75;24.17;101833.13;4434459;32;20454;-68
2022/08/30 13:09:37;;;;;;;;;;;;;;;31.00;23.92;101835.84;4433513;32;20005;-68
2022/08/30 13:12:19;;;;;;;;;;;;;;;30.89;23.74;101831.00;4435979;32;19964;-68
2022/08/30 13:14:45;;;;;;;;;;;;;;;31.82;22.71;101831.38;4440845;32;20552;-68
2022/08/30 13:19:56;;;;;;;;;;;;;;;32.73;22.28;101832.41;3980424;32;15723487;-68
2022/08/30 13:22:24;;;;;;;;;;;;;;;32.73;22.28;101832.41;4464046;32;20689;-68
2022/08/30 13:24:53;;;;;;;;;;;;;;;32.52;22.21;101835.31;4470077;32;19997;-68
2022/08/30 13:27:19;;;;;;;;;;;;;;;32.55;22.24;101831.28;4467360;32;20003;-67
2022/08/30 13:29:45;;;;;;;;;;;;;;;31.70;23.35;101832.91;4467197;32;19957;-67
2022/08/30 13:32:12;;;;;;;;;;;;;;;31.09;23.94;101815.84;4466558;32;20299;-67
2022/08/30 13:34:48;;;;;;;;;;;;;;;30.57;24.63;101821.50;4467077;32;19996;-68
2022/08/30 13:37:17;;;;;;;;;;;;;;;30.36;25.29;101817.63;4463048;32;19964;-68
2022/08/30 13:39:43;;;;;;;;;;;;;;;29.93;25.65;101829.31;4470660;32;19974;-67
2022/08/30 13:42:08;;;;;;;;;;;;;;;29.92;25.67;101827.75;4468273;32;19956;-67
2022/08/30 13:44:34;;;;;;;;;;;;;;;29.81;25.69;101825.00;4467878;32;20602;-68
2022/08/30 13:47:02;;;;;;;;;;;;;;;29.81;26.01;101830.78;4469686;32;19953;-68
2022/08/30 13:49:29;;;;;;;;;;;;;;;29.51;26.13;101829.31;4475074;32;19933;-68
2022/08/30 13:51:55;;;;;;;;;;;;;;;29.23;26.38;101818.03;4468081;32;19961;-68
2022/08/30 13:54:24;;;;;;;;;;;;;;;29.25;26.70;101823.28;4468265;32;19976;-68
2022/08/30 13:56:51;;;;;;;;;;;;;;;28.96;27.12;101828.53;4467995;32;20033;-68
2022/08/30 13:59:18;;;;;;;;;;;;;;;28.72;27.47;101834.28;4454097;32;20492;-68
2022/08/30 14:01:44;;;;;;;;;;;;;;;28.39;28.09;101828.75;4465436;32;19975;-68
2022/08/30 14:04:09;;;;;;;;;;;;;;;28.56;27.79;101829.44;4469856;32;19985;-68